Aérodrome :
LOGIN :

S'inscrire | Disclaimer

   EN    FR    IT 

 










Légende :    VFR   VFR Marginal   IFR   IFR Intensif   IFR Très Intensif
Visi : 
Plafond : 
>= 8 km
>= 3000ft
5 à 8 km
1000 à 3000 ft
1500m à 5 km
500 à 1000 ft
800 à 1500m
200 à 500 ft
< 800m
< 200 ft
Symboles :   Orages  Brouillard  Fortes neiges  Fortes précipitations  Vent > 20 kt
SIGMETs :   Divers  Orages  Givrage  Turbulence  Onde Orograph.  Cendres Volcan.







- Altitude de l'aérodrome : 90 ft
- Code IATA : NTE
- Voir les cartes d'approche


LFRS - Nantes

DERNIER METAR :
  • 271330Z AUTO 32009KT 280V340 9999 SCT047 20/09 Q1014 NOSIG

METARs EXPIRÉS :
  • 271300Z AUTO 32007KT 270V020 9999 FEW044 19/10 Q1014 NOSIG
  • 271230Z AUTO 35007KT 280V080 9999 BKN041 BKN190 19/09 Q1014 NOSIG
  • 271200Z AUTO 34007KT 290V050 9999 BKN038 BKN190 19/10 Q1015 NOSIG
  • 271130Z AUTO 33006KT 270V020 9999 BKN032 BKN040 19/11 Q1015 NOSIG
  • 271100Z AUTO 34007KT 290V030 9999 FEW027 BKN037 18/12 Q1015 NOSIG

TAF TAF LFRS
Valide du 27 à 12h jusqu'au 28 à 18h UTC


271100Z 2712/2818 34008KT 9999 BKN017
BECMG 2714/2717 29012KT
BECMG 2717/2719 29008KT CAVOK
TEMPO 2721/2724 BKN014
BECMG 2804/2806 SCT025TCU
TEMPO 2806/2818 30015G25KT 4500 -SHRA BKN025TCU
ATIS : +33 2 40 05 12 74
Pas de NOTAMs connus pour ce terrain.



MET'MAP, la Météo Aéronautique d'un coup d'oeil ! - Copyright ORBIFLY Décembre 2007 - Disclaimer

ORBIFLY MET'MAP TEAM :

Programmation & Développement : Alexandra Zaïnal
Conception & Développement : Baudouin d'Aumeries
Co-Programmation & Développement : Marc-Olivier Méhu
Soutien technique & logistique : Manuel Goepfert

Contact : metmap@orbifly.com




SOURCES & CREDITS :

   NOAA